No particular awareness of the weather is required.    There are no Weather-warnings


Meteo18 Weather Cam more information Meteo18 Weather Cam


Thunder radar more information blitzortung!


Rain radar more information rain snow radar


Visit our other weather sites:

Template documentation
and downloads

And another site



Weather Underground History page Text

Daily Summary for February 15, 2018 Units:  Metric    English   Both
« Previous Day
Next Day »
Daily Weekly Monthly Yearly Custom
  High: Low: Average:
Temperature: -17.8 °C -15.8 °C -12.7 °C
Dew Point: -17.8 °C -16.4 °C -13.1 °C
Humidity: Humidity % 91 % 96 %
Wind Speed: 0 km/h 0 km/h 11.4 km/h
Wind Gust: 0 km/h - -
Wind:- - SW
Pressure: 0 hPa 34246 hPa -
Precipitation: 160.02 mm    
Historical Graphs
 
 
Tabular Data for February 15, 2018
Time Temperature Dew Point Pressure Wind Wind Speed Wind Gust Humidity Rainfall Rate (Hourly)
-17.8 °C -17.8 °C 0 hPa Calm     Humidity % 0 mm
00:02 -15.7 °C -16.4 °C 34279.9 hPa SSE 5.1 km/h 18.2 km/h 91 % 33.02 mm
00:08 -15.7 °C -16.4 °C 34269.7 hPa SSE 10.3 km/h 12.9 km/h 92 % 38.1 mm
00:14 -15.7 °C -16.4 °C 34269.7 hPa SSE 5.1 km/h 12.9 km/h 92 % 38.1 mm
00:20 -15.7 °C -16.4 °C 34269.7 hPa SSE 2.3 km/h 18.2 km/h 92 % 38.1 mm
00:26 -15.8 °C -16.4 °C 34269.7 hPa South 5.1 km/h 20.8 km/h 92 % 38.1 mm
00:32 -15.8 °C -16.4 °C 34269.7 hPa SE 2.3 km/h 18.2 km/h 92 % 38.1 mm
00:38 -15.8 °C -16.3 °C 34269.7 hPa SSW 2.3 km/h 12.9 km/h 93 % 38.1 mm
00:44 -15.8 °C -16.3 °C 34269.7 hPa South 12.7 km/h 15.6 km/h 93 % 38.1 mm
00:50 -15.8 °C -16.3 °C 34269.7 hPa SE 2.3 km/h 18.2 km/h 93 % 38.1 mm
01:07 -15.8 °C -16.3 °C 34256.2 hPa ESE 10.3 km/h 18.2 km/h 94 % 25.4 mm
01:14 -15.8 °C -16.3 °C 34256.2 hPa South 10.3 km/h 18.2 km/h 94 % 38.1 mm
01:20 -15.8 °C -16.3 °C 34256.2 hPa ESE 10.3 km/h 15.6 km/h 94 % 38.1 mm
01:26 -15.8 °C -16.2 °C 34256.2 hPa SSE 7.6 km/h 15.6 km/h 95 % 33.02 mm
01:36 -15.8 °C -16.2 °C 34256.2 hPa South 5.1 km/h 15.6 km/h 95 % 38.1 mm
01:42 -15.8 °C -16.2 °C 34256.2 hPa SE 7.6 km/h 15.6 km/h 95 % 38.1 mm
01:48 -15.7 °C -16.1 °C 34246 hPa SSE 7.6 km/h 15.6 km/h 96 % 38.1 mm
01:54 -15.7 °C -16.1 °C 34246 hPa South 2.3 km/h 12.9 km/h 96 % 38.1 mm
02:00 -15.7 °C -16.1 °C 34256.2 hPa SSW 10.3 km/h 12.9 km/h 96 % 38.1 mm
02:06 -15.7 °C -16 °C 34256.2 hPa SSW 10.3 km/h 12.9 km/h 96 % 33.02 mm
02:12 -15.7 °C -16 °C 34256.2 hPa SSW 12.7 km/h 18.2 km/h 96 % 25.4 mm
02:18 -15.7 °C -16 °C 34246 hPa SSE 2.3 km/h 15.6 km/h 96 % 12.7 mm
02:24 -15.6 °C -15.9 °C 34246 hPa SSE 10.3 km/h 23.3 km/h 96 % 20.32 mm
02:30 -15.6 °C -15.9 °C 34246 hPa SSE 5.1 km/h 18.2 km/h 96 % 12.7 mm
02:36 -15.6 °C -15.9 °C 34246 hPa SSE 15.6 km/h 15.6 km/h 96 % 12.7 mm
02:42 -15.6 °C -15.8 °C 34256.2 hPa SSE 10.3 km/h 12.9 km/h 97 % 12.7 mm
02:48 -15.5 °C -15.7 °C 34256.2 hPa SSE 7.6 km/h 12.9 km/h 97 % 12.7 mm
02:54 -15.5 °C -15.7 °C 34246 hPa SSE 5.1 km/h 10.3 km/h 97 % 12.7 mm
03:00 -15.4 °C -15.7 °C 34256.2 hPa South 5.1 km/h 18.2 km/h 97 % 12.7 mm
03:06 -15.4 °C -15.7 °C 34256.2 hPa SSE 2.3 km/h 18.2 km/h 97 % 12.7 mm
03:12 -15.4 °C -15.7 °C 34256.2 hPa SSE 5.1 km/h 15.6 km/h 97 % 12.7 mm
03:18 -15.4 °C -15.7 °C 34256.2 hPa SW 7.6 km/h 15.6 km/h 97 % 12.7 mm
03:24 -15.4 °C -15.7 °C 34256.2 hPa South 7.6 km/h 15.6 km/h 97 % 7.62 mm
03:30 -15.4 °C -15.7 °C 34246 hPa Calm   10.3 km/h 97 % 12.7 mm
03:36 -15.4 °C -15.6 °C 34246 hPa South 5.1 km/h 7.7 km/h 97 % 12.7 mm
03:42 -15.4 °C -15.6 °C 34246 hPa SSW 10.3 km/h 12.9 km/h 97 % 12.7 mm
03:48 -15.3 °C -15.6 °C 34246 hPa SSW 5.1 km/h 7.7 km/h 97 % 12.7 mm
03:54 -15.3 °C -15.6 °C 34246 hPa Calm   10.3 km/h 97 % 7.62 mm
04:00 -15.3 °C -15.6 °C 34246 hPa SSE 2.3 km/h 7.7 km/h 97 % 12.7 mm
04:06 -15.3 °C -15.5 °C 34256.2 hPa South 2.3 km/h 5.1 km/h 97 % 12.7 mm
04:12 -15.2 °C -15.4 °C 34246 hPa SSE 10.3 km/h 10.3 km/h 97 % 12.7 mm
04:19 -15.2 °C -15.4 °C 34246 hPa Calm   7.7 km/h 97 % 12.7 mm
04:25 -15.2 °C -15.4 °C 34246 hPa Calm   5.1 km/h 97 % 12.7 mm
04:31 -15.2 °C -15.4 °C 34246 hPa Calm   2.6 km/h 97 % 12.7 mm
04:37 -15.1 °C -15.3 °C 34246 hPa SSE 2.3 km/h 5.1 km/h 97 % 12.7 mm
04:43 -15.1 °C -15.3 °C 34246 hPa Calm   2.6 km/h 97 % 12.7 mm
04:49 -15.1 °C -15.3 °C 34256.2 hPa Calm   2.6 km/h 97 % 20.32 mm
04:55 -15.1 °C -15.3 °C 34256.2 hPa SSE 2.3 km/h 2.6 km/h 97 % 20.32 mm
05:01 -15.1 °C -15.3 °C 34256.2 hPa SSE 2.3 km/h 2.6 km/h 97 % 12.7 mm
05:07 -15.1 °C -15.3 °C 34256.2 hPa SSE 2.3 km/h 2.6 km/h 97 % 20.32 mm
05:13 -14.9 °C -15.2 °C 34256.2 hPa South 2.3 km/h 2.6 km/h 97 % 20.32 mm
05:19 -14.8 °C -15 °C 34256.2 hPa SSW 2.3 km/h 7.7 km/h 98 % 20.32 mm
05:25 -14.7 °C -14.9 °C 34256.2 hPa South 2.3 km/h 7.7 km/h 98 % 12.7 mm
05:31 -14.7 °C -14.8 °C 34256.2 hPa SSW 5.1 km/h 10.3 km/h 98 % 12.7 mm
05:37 -14.6 °C -14.8 °C 34256.2 hPa SSW 5.1 km/h 10.3 km/h 98 % 12.7 mm
05:43 -14.6 °C -14.7 °C 34269.7 hPa SSW 7.6 km/h 7.7 km/h 98 % 12.7 mm
05:49 -14.6 °C -14.7 °C 34269.7 hPa SW 7.6 km/h 7.7 km/h 98 % 7.62 mm
05:55 -14.6 °C -14.7 °C 34269.7 hPa SSW 5.1 km/h 7.7 km/h 98 % 7.62 mm
06:01 -14.5 °C -14.7 °C 34269.7 hPa South 2.3 km/h 7.7 km/h 98 % 7.62 mm
06:07 -14.4 °C -14.6 °C 34279.9 hPa SW 7.6 km/h 10.3 km/h 98 % 0 mm
06:13 -14.3 °C -14.5 °C 34279.9 hPa SSW 5.1 km/h 10.3 km/h 98 % 0 mm
06:19 -14.2 °C -14.3 °C 34279.9 hPa SW 10.3 km/h 23.3 km/h 98 % 7.62 mm
06:25 -14.1 °C -14.2 °C 34279.9 hPa SSW 5.1 km/h 7.7 km/h 98 % 7.62 mm
06:31 -14 °C -14.2 °C 34279.9 hPa Calm   7.7 km/h 98 % 7.62 mm
06:37 -13.8 °C -13.9 °C 34293.4 hPa Calm   7.7 km/h 98 % 7.62 mm
06:43 -13.7 °C -13.9 °C 34293.4 hPa SW 2.3 km/h 7.7 km/h 98 % 7.62 mm
06:49 -13.7 °C -13.8 °C 34293.4 hPa WSW 2.3 km/h 7.7 km/h 98 % 7.62 mm
06:55 -13.6 °C -13.8 °C 34293.4 hPa WSW 7.6 km/h 18.2 km/h 98 % 7.62 mm
07:01 -13.6 °C -13.7 °C 34293.4 hPa SW 2.3 km/h 12.9 km/h 98 % 7.62 mm
07:07 -13.5 °C -13.7 °C 34293.4 hPa WSW 5.1 km/h 10.3 km/h 98 % 7.62 mm
07:13 -13.4 °C -13.6 °C 34303.6 hPa SW 5.1 km/h 10.3 km/h 98 % 7.62 mm
07:19 -13.3 °C -13.4 °C 34303.6 hPa WSW 10.3 km/h 15.6 km/h 98 % 0 mm
07:25 -13.2 °C -13.4 °C 34303.6 hPa WSW 2.3 km/h 20.8 km/h 98 % 0 mm
07:31 -13.2 °C -13.3 °C 34303.6 hPa West 7.6 km/h 28.5 km/h 98 % 0 mm
07:37 -13.1 °C -13.3 °C 34313.7 hPa WSW 10.3 km/h 25.9 km/h 98 % 0 mm
07:43 -13.1 °C -13.2 °C 34313.7 hPa WSW 17.9 km/h 20.8 km/h 98 % 0 mm
07:49 -13.1 °C -13.2 °C 34313.7 hPa WSW 17.9 km/h 23.3 km/h 98 % 0 mm
07:55 -13 °C -13.2 °C 34313.7 hPa SW 5.1 km/h 20.8 km/h 98 % 0 mm
08:01 -13 °C -13.2 °C 34313.7 hPa West 12.7 km/h 20.8 km/h 98 % 0 mm
08:07 -13 °C -13.2 °C 34327.3 hPa West 10.3 km/h 25.9 km/h 98 % 0 mm
08:13 -12.9 °C -13.1 °C 34327.3 hPa WSW 12.7 km/h 25.9 km/h 98 % 0 mm
08:19 -12.9 °C -13.1 °C 34327.3 hPa WSW 10.3 km/h 23.3 km/h 98 % 0 mm
08:25 -12.9 °C -13.1 °C 34337.4 hPa SW 10.3 km/h 31.1 km/h 98 % 0 mm
08:31 -12.8 °C -13 °C 34337.4 hPa WSW 20.9 km/h 23.3 km/h 98 % 0 mm
08:37 -12.8 °C -13 °C 34337.4 hPa SW 15.6 km/h 28.5 km/h 98 % 0 mm
08:43 -12.8 °C -13 °C 34337.4 hPa SW 12.7 km/h 20.8 km/h 98 % 0 mm
08:49 -12.8 °C -12.9 °C 34337.4 hPa WSW 15.6 km/h 23.3 km/h 98 % 0 mm
08:55 -12.7 °C -12.9 °C 34347.6 hPa SW 15.6 km/h 23.3 km/h 98 % 0 mm
09:01 -12.7 °C -12.9 °C 34347.6 hPa SW 10.3 km/h 20.8 km/h 98 % 0 mm
09:07 -12.7 °C -12.8 °C 34347.6 hPa SW 15.6 km/h 18.2 km/h 98 % 0 mm
09:13 -12.6 °C -12.8 °C 34347.6 hPa SW 12.7 km/h 23.3 km/h 98 % 0 mm
09:19 -12.7 °C -12.8 °C 34347.6 hPa SW 7.6 km/h 23.3 km/h 98 % 0 mm
09:25 -12.6 °C -12.8 °C 34361.1 hPa SW 7.6 km/h 18.2 km/h 98 % 0 mm
09:31 -12.6 °C -12.7 °C 34361.1 hPa SW 15.6 km/h 20.8 km/h 98 % 0 mm
09:37 -12.6 °C -12.7 °C 34361.1 hPa SW 15.6 km/h 23.3 km/h 98 % 0 mm
09:43 -12.5 °C -12.7 °C 34371.3 hPa SW 12.7 km/h 23.3 km/h 98 % 7.62 mm
09:49 -12.5 °C -12.7 °C 34371.3 hPa SW 15.6 km/h 20.8 km/h 98 % 7.62 mm
09:55 -12.4 °C -12.6 °C 34371.3 hPa SSW 12.7 km/h 20.8 km/h 98 % 7.62 mm
10:01 -12.4 °C -12.6 °C 34371.3 hPa SW 15.6 km/h 20.8 km/h 98 % 7.62 mm
10:07 -12.4 °C -12.6 °C 34371.3 hPa SW 10.3 km/h 15.6 km/h 98 % 7.62 mm
10:13 -12.4 °C -12.6 °C 34371.3 hPa SW 15.6 km/h 18.2 km/h 98 % 7.62 mm
10:19 -12.3 °C -12.5 °C 34371.3 hPa SSW 10.3 km/h 20.8 km/h 98 % 12.7 mm
10:25 -12.3 °C -12.4 °C 34384.8 hPa SW 15.6 km/h 23.3 km/h 98 % 12.7 mm
10:31 -12.3 °C -12.4 °C 34384.8 hPa SW 20.9 km/h 25.9 km/h 98 % 12.7 mm
10:37 -12.3 °C -12.4 °C 34384.8 hPa SW 15.6 km/h 23.3 km/h 98 % 12.7 mm
10:43 -12.2 °C -12.3 °C 34384.8 hPa SW 12.7 km/h 25.9 km/h 98 % 12.7 mm
10:49 -12.1 °C -12.3 °C 34384.8 hPa SSW 10.3 km/h 20.8 km/h 98 % 12.7 mm
10:55 -12.1 °C -12.2 °C 34384.8 hPa SW 10.3 km/h 20.8 km/h 98 % 12.7 mm
11:01 -12 °C -12.2 °C 34384.8 hPa SW 20.9 km/h 28.5 km/h 98 % 12.7 mm
11:07 -11.9 °C -12.1 °C 34384.8 hPa SW 20.9 km/h 25.9 km/h 98 % 12.7 mm
11:13 -11.9 °C -12.1 °C 34395 hPa West 10.3 km/h 18.2 km/h 98 % 12.7 mm
11:19 -11.8 °C -12 °C 34384.8 hPa SW 12.7 km/h 25.9 km/h 98 % 7.62 mm
11:25 -11.8 °C -11.9 °C 34395 hPa SSW 12.7 km/h 31.1 km/h 98 % 7.62 mm
11:31 -11.7 °C -11.9 °C 34395 hPa West 12.7 km/h 25.9 km/h 98 % 7.62 mm
11:37 -11.7 °C -11.9 °C 34395 hPa SW 26.2 km/h 26.2 km/h 98 % 7.62 mm
11:43 -11.7 °C -11.8 °C 34395 hPa SW 23 km/h 25.9 km/h 98 % 0 mm
11:49 -11.6 °C -11.8 °C 34395 hPa West 26.2 km/h 36.2 km/h 98 % 0 mm
11:55 -11.6 °C -11.8 °C 34405.1 hPa SW 20.9 km/h 25.9 km/h 98 % 0 mm
12:01 -11.6 °C -11.7 °C 34405.1 hPa SW 15.6 km/h 31.1 km/h 98 % 0 mm
12:07 -11.5 °C -11.8 °C 34405.1 hPa WSW 17.9 km/h 28.5 km/h 97 % 0 mm
12:13 -11.5 °C -11.8 °C 34405.1 hPa WSW 28.5 km/h 36.2 km/h 97 % 0 mm
12:20 -11.4 °C -11.7 °C 34405.1 hPa SW 15.6 km/h 33.6 km/h 97 % 0 mm
12:26 -11.4 °C -11.7 °C 34405.1 hPa SW 10.3 km/h 28.5 km/h 97 % 0 mm
12:32 -11.3 °C -11.6 °C 34405.1 hPa West 23 km/h 33.6 km/h 97 % 0 mm
12:38 -11.3 °C -11.6 °C 34405.1 hPa WSW 10.3 km/h 25.9 km/h 97 % 0 mm
12:44 -11.3 °C -11.6 °C 34405.1 hPa WSW 20.9 km/h 23.3 km/h 96 % 0 mm
12:50 -11.3 °C -11.6 °C 34405.1 hPa SSW 10.3 km/h 36.2 km/h 96 % 0 mm
12:56 -11.2 °C -11.6 °C 34405.1 hPa WSW 46.3 km/h 54.4 km/h 96 % 0 mm
13:02 -11.2 °C -11.5 °C 34405.1 hPa SSW 15.6 km/h 38.8 km/h 96 % 0 mm
13:08 -11.1 °C -11.4 °C 34405.1 hPa West 20.9 km/h 38.8 km/h 96 % 0 mm
13:14 -11.1 °C -11.4 °C 34405.1 hPa WSW 20.9 km/h 36.2 km/h 96 % 0 mm
13:20 -10.9 °C -11.4 °C 34405.1 hPa West 7.6 km/h 23.3 km/h 95 % 0 mm
13:26 -10.9 °C -11.4 °C 34405.1 hPa SW 23 km/h 33.6 km/h 95 % 0 mm
13:32 -10.9 °C -11.4 °C 34405.1 hPa SW 17.9 km/h 44.1 km/h 95 % 0 mm
13:38 -11 °C -11.4 °C 34418.7 hPa SW 17.9 km/h 33.6 km/h 95 % 7.62 mm
13:44 -11 °C -11.3 °C 34418.7 hPa SW 23 km/h 41.4 km/h 96 % 12.7 mm
13:50 -11 °C -11.3 °C 34418.7 hPa WSW 31.4 km/h 44.1 km/h 96 % 12.7 mm
13:56 -11 °C -11.3 °C 34418.7 hPa SSW 23 km/h 31.1 km/h 96 % 12.7 mm
14:02 -11 °C -11.3 °C 34418.7 hPa SW 38.8 km/h 44.1 km/h 96 % 12.7 mm
14:08 -11 °C -11.3 °C 34405.1 hPa SW 41.7 km/h 46.7 km/h 96 % 12.7 mm
14:14 -10.9 °C -11.3 °C 34405.1 hPa WSW 33.6 km/h 38.8 km/h 96 % 12.7 mm
14:20 -10.9 °C -11.3 °C 34405.1 hPa SW 28.5 km/h 44.1 km/h 95 % 12.7 mm
14:26 -10.9 °C -11.3 °C 34405.1 hPa West 7.6 km/h 41.4 km/h 95 % 12.7 mm
14:32 -10.8 °C -11.3 °C 34405.1 hPa WSW 31.4 km/h 41.4 km/h 94 % 12.7 mm
14:38 -10.7 °C -11.2 °C 34405.1 hPa West 23 km/h 41.4 km/h 94 % 12.7 mm
14:44 -10.7 °C -11.2 °C 34418.7 hPa WSW 31.4 km/h 36.2 km/h 94 % 7.62 mm
14:50 -10.7 °C -11.3 °C 34418.7 hPa SW 17.9 km/h 44.1 km/h 93 % 7.62 mm
14:56 -10.7 °C -11.3 °C 34418.7 hPa WSW 26.2 km/h 44.1 km/h 93 % 0 mm
15:02 -10.7 °C -11.3 °C 34418.7 hPa West 15.6 km/h 31.1 km/h 93 % 0 mm
15:08 -10.7 °C -11.3 °C 34418.7 hPa West 26.2 km/h 38.8 km/h 93 % 0 mm
15:14 -10.8 °C -11.3 °C 34418.7 hPa WSW 15.6 km/h 28.5 km/h 94 % 0 mm
15:20 -10.8 °C -11.3 °C 34418.7 hPa SSW 10.3 km/h 25.9 km/h 94 % 0 mm
15:26 -10.8 °C -11.3 °C 34418.7 hPa WSW 15.6 km/h 23.3 km/h 94 % 0 mm
15:32 -10.8 °C -11.3 °C 34418.7 hPa SW 17.9 km/h 31.1 km/h 94 % 0 mm
15:38 -10.8 °C -11.4 °C 34418.7 hPa SW 26.2 km/h 44.1 km/h 93 % 0 mm
15:44 -10.8 °C -11.4 °C 34428.8 hPa SW 26.2 km/h 36.2 km/h 93 % 0 mm
15:50 -10.8 °C -11.4 °C 34428.8 hPa SW 12.7 km/h 25.9 km/h 93 % 0 mm
15:56 -10.8 °C -11.4 °C 34428.8 hPa SW 28.5 km/h 41.4 km/h 93 % 0 mm
16:02 -10.8 °C -11.4 °C 34428.8 hPa SW 15.6 km/h 28.5 km/h 93 % 0 mm
16:08 -10.7 °C -11.3 °C 34428.8 hPa WSW 17.9 km/h 36.2 km/h 93 % 0 mm
16:14 -10.7 °C -11.3 °C 34428.8 hPa West 12.7 km/h 28.5 km/h 93 % 0 mm
16:20 -10.8 °C -11.3 °C 34428.8 hPa SW 20.9 km/h 23.3 km/h 94 % 0 mm
16:26 -10.8 °C -11.3 °C 34428.8 hPa West 20.9 km/h 23.3 km/h 94 % 0 mm
16:32 -10.8 °C -11.3 °C 34428.8 hPa West 12.7 km/h 25.9 km/h 95 % 0 mm
16:38 -10.9 °C -11.3 °C 34428.8 hPa SW 12.7 km/h 25.9 km/h 95 % 0 mm
16:44 -10.9 °C -11.3 °C 34428.8 hPa SSW 12.7 km/h 23.3 km/h 95 % 0 mm
16:50 -10.9 °C -11.3 °C 34442.4 hPa SW 7.6 km/h 36.2 km/h 95 % 0 mm
16:56 -10.9 °C -11.3 °C 34442.4 hPa SW 10.3 km/h 25.9 km/h 95 % 0 mm
17:02 -10.8 °C -11.3 °C 34442.4 hPa SW 20.9 km/h 31.1 km/h 95 % 0 mm
17:08 -10.9 °C -11.3 °C 34452.6 hPa West 12.7 km/h 20.8 km/h 95 % 0 mm
17:14 -10.9 °C -11.3 °C 34452.6 hPa SW 10.3 km/h 25.9 km/h 95 % 0 mm
17:20 -10.9 °C -11.3 °C 34452.6 hPa West 20.9 km/h 31.1 km/h 95 % 7.62 mm
17:26 -10.9 °C -11.3 °C 34452.6 hPa West 23 km/h 25.9 km/h 95 % 7.62 mm
17:32 -10.9 °C -11.3 °C 34452.6 hPa WSW 20.9 km/h 25.9 km/h 95 % 7.62 mm
17:38 -10.9 °C -11.3 °C 34452.6 hPa WSW 10.3 km/h 23.3 km/h 95 % 7.62 mm
17:44 -10.9 °C -11.3 °C 34452.6 hPa SW 15.6 km/h 33.6 km/h 95 % 7.62 mm
17:50 -10.8 °C -11.3 °C 34462.7 hPa WSW 26.2 km/h 28.5 km/h 94 % 7.62 mm
17:56 -10.8 °C -11.3 °C 34462.7 hPa WSW 20.9 km/h 20.9 km/h 94 % 7.62 mm
18:02 -10.8 °C -11.3 °C 34462.7 hPa WSW 12.7 km/h 23.3 km/h 94 % 7.62 mm
18:08 -10.8 °C -11.3 °C 34462.7 hPa West 26.2 km/h 28.5 km/h 94 % 7.62 mm
18:14 -10.9 °C -11.4 °C 34462.7 hPa West 12.7 km/h 31.1 km/h 94 % 7.62 mm
18:20 -10.9 °C -11.4 °C 34462.7 hPa West 23 km/h 25.9 km/h 94 % 0 mm
18:26 -10.9 °C -11.4 °C 34476.3 hPa SW 10.3 km/h 23.3 km/h 94 % 0 mm
18:32 -10.9 °C -11.4 °C 34476.3 hPa SW 23 km/h 31.1 km/h 95 % 0 mm
18:38 -11 °C -11.4 °C 34476.3 hPa SW 5.1 km/h 25.9 km/h 95 % 0 mm
18:44 -11.1 °C -11.5 °C 34476.3 hPa West 15.6 km/h 23.3 km/h 95 % 7.62 mm
18:50 -11.1 °C -11.5 °C 34476.3 hPa West 23 km/h 44.1 km/h 95 % 7.62 mm
18:56 -11.1 °C -11.5 °C 34486.4 hPa WSW 15.6 km/h 31.1 km/h 95 % 7.62 mm
19:02 -11.1 °C -11.5 °C 34486.4 hPa West 5.1 km/h 23.3 km/h 95 % 7.62 mm
19:08 -11.1 °C -11.5 °C 34496.6 hPa NW 10.3 km/h 18.2 km/h 95 % 7.62 mm
19:14 -11.1 °C -11.6 °C 34496.6 hPa WNW 7.6 km/h 15.6 km/h 95 % 7.62 mm
19:20 -11.2 °C -11.6 °C 34496.6 hPa West 5.1 km/h 10.3 km/h 95 % 7.62 mm
19:26 -11.2 °C -11.7 °C 34496.6 hPa WNW 5.1 km/h 10.3 km/h 95 % 7.62 mm
19:32 -11.2 °C -11.7 °C 34510.1 hPa WNW 2.3 km/h 7.7 km/h 95 % 7.62 mm
19:38 -11.3 °C -11.7 °C 34510.1 hPa West 5.1 km/h 10.3 km/h 95 % 7.62 mm
19:44 -11.3 °C -11.8 °C 34510.1 hPa West 5.1 km/h 15.6 km/h 95 % 0 mm
19:50 -11.4 °C -11.8 °C 34510.1 hPa WNW 7.6 km/h 23.3 km/h 95 % 7.62 mm
19:56 -11.4 °C -11.9 °C 34520.3 hPa WNW 17.9 km/h 18.2 km/h 95 % 12.7 mm
20:02 -11.5 °C -11.9 °C 34520.3 hPa WNW 5.1 km/h 7.7 km/h 95 % 12.7 mm
20:08 -11.5 °C -11.9 °C 34520.3 hPa West 5.1 km/h 5.1 km/h 95 % 12.7 mm
20:14 -11.6 °C -12 °C 34520.3 hPa West 7.6 km/h 7.7 km/h 95 % 12.7 mm
20:20 -11.6 °C -12 °C 34520.3 hPa WNW 2.3 km/h 10.3 km/h 95 % 12.7 mm
20:26 -11.6 °C -12.1 °C 34520.3 hPa WNW 2.3 km/h 5.1 km/h 95 % 12.7 mm
20:32 -11.6 °C -12.1 °C 34520.3 hPa WNW 2.3 km/h 2.6 km/h 95 % 12.7 mm
20:38 -11.7 °C -12.1 °C 34520.3 hPa Calm   2.6 km/h 95 % 12.7 mm
20:44 -11.7 °C -12.1 °C 34533.8 hPa Calm     96 % 12.7 mm
20:51 -11.7 °C -12.1 °C 34533.8 hPa Calm   2.6 km/h 96 % 7.62 mm
20:57 -11.7 °C -12.1 °C 34533.8 hPa Calm   2.6 km/h 96 % 0 mm
21:03 -11.8 °C -12.1 °C 34533.8 hPa WSW 5.1 km/h 7.7 km/h 96 % 0 mm
21:09 -11.8 °C -12.2 °C 34533.8 hPa West 5.1 km/h 15.6 km/h 96 % 0 mm
21:15 -11.8 °C -12.2 °C 34533.8 hPa West 2.3 km/h 7.7 km/h 96 % 0 mm
21:21 -11.9 °C -12.2 °C 34520.3 hPa Calm   5.1 km/h 96 % 0 mm
21:27 -12 °C -12.3 °C 34520.3 hPa West 2.3 km/h 7.7 km/h 96 % 0 mm
21:33 -12 °C -12.3 °C 34533.8 hPa WSW 5.1 km/h 12.9 km/h 96 % 0 mm
21:39 -12.1 °C -12.5 °C 34533.8 hPa West 10.3 km/h 15.6 km/h 95 % 0 mm
21:45 -12.1 °C -12.6 °C 34533.8 hPa WSW 7.6 km/h 10.3 km/h 94 % 0 mm
21:51 -12.1 °C -12.6 °C 34544 hPa WSW 7.6 km/h 15.6 km/h 94 % 0 mm
21:57 -12.1 °C -12.6 °C 34544 hPa WSW 10.3 km/h 18.2 km/h 94 % 0 mm
22:03 -12.1 °C -12.6 °C 34544 hPa West 10.3 km/h 20.8 km/h 94 % 0 mm
22:09 -12.1 °C -12.6 °C 34554.1 hPa WNW 15.6 km/h 20.8 km/h 94 % 0 mm
22:15 -12.2 °C -12.7 °C 34554.1 hPa West 26.2 km/h 36.2 km/h 94 % 0 mm
22:21 -12.3 °C -12.8 °C 34567.7 hPa NW 20.9 km/h 23.3 km/h 94 % 0 mm
22:29 -12.4 °C -12.9 °C 34567.7 hPa NW 10.3 km/h 25.9 km/h 94 % 0 mm
22:35 -12.4 °C -12.9 °C 34567.7 hPa NW 15.6 km/h 20.8 km/h 94 % 0 mm
22:41 -12.4 °C -12.9 °C 34567.7 hPa NNE 5.1 km/h 25.9 km/h 94 % 0 mm
22:47 -12.6 °C -13.1 °C 34577.8 hPa WNW 12.7 km/h 20.8 km/h 94 % 0 mm
22:53 -12.6 °C -13 °C 34577.8 hPa NW 5.1 km/h 12.9 km/h 95 % 0 mm
22:59 -12.6 °C -13.1 °C 34577.8 hPa WNW 2.3 km/h 12.9 km/h 95 % 0 mm
23:05 -12.6 °C -13.1 °C 34577.8 hPa WSW 7.6 km/h 15.6 km/h 95 % 0 mm
23:11 -12.6 °C -13.1 °C 34577.8 hPa NW 5.1 km/h 18.2 km/h 95 % 0 mm
23:17 -12.7 °C -13.1 °C 34577.8 hPa NW 5.1 km/h 10.3 km/h 95 % 0 mm
23:23 -12.7 °C -13.1 °C 34577.8 hPa WNW 7.6 km/h 15.6 km/h 95 % 0 mm
23:29 -12.7 °C -13.2 °C 34577.8 hPa North 10.3 km/h 18.2 km/h 95 % 0 mm
23:35 -12.7 °C -13.2 °C 34591.4 hPa NW 5.1 km/h 15.6 km/h 95 % 0 mm
23:41 -12.7 °C -13.2 °C 34591.4 hPa WNW 7.6 km/h 10.3 km/h 95 % 0 mm
23:47 -12.7 °C -13.2 °C 34591.4 hPa WNW 7.6 km/h 7.7 km/h 95 % 0 mm
23:53 -12.8 °C -13.2 °C 34591.4 hPa WNW 7.6 km/h 10.3 km/h 95 % 0 mm
23:59 -12.8 °C -13.2 °C 34591.4 hPa WNW 7.6 km/h 10.3 km/h 95 % 0 mm
Meteo18
Compliments of Weather Underground - 4 mb

Script developed by  Jim McMurry - jmcmurry@mwt.net Adapted for the template by  Wim van der Kuil - Leuven-Template.eu

You find our weather info also at:

European Weather Network

Weather Underground

Equipment we use:

Weather-station
Davis Vue

Weather-program
Meteobridge

Weather-server
Raspberry PI 2 B+

Provider
1 and 1

Davis Vue

Meteobridge

Raspberry PI 2 B+

1 and 1